Time;durP1;ratioP1;P1;durP2;ratioP2;P2;SDS_P1;SDS_P2;PMS_P1;PMS_P2;Temp;Humidity;BMP_temperature;BMP_pressure;BME280_temperature;BME280_humidity;BME280_pressure;Samples;Min_cycle;Max_cycle;Signal;HPM_P1;HPM_P2
2022/01/12 00:01:10;;;;;;;5.75;2.20;;;;;;;7.06;100.00;103570.50;5070704;28;20040;-35
2022/01/12 00:03:38;;;;;;;8.07;3.20;;;;;;;7.03;100.00;103570.94;5069792;28;20059;-35
2022/01/12 00:06:06;;;;;;;5.95;2.35;;;;;;;7.00;100.00;103574.97;5070544;28;20047;-39
2022/01/12 00:08:35;;;;;;;4.90;2.03;;;;;;;6.98;100.00;103571.56;5071002;28;20036;-38
2022/01/12 00:11:05;;;;;;;5.68;1.95;;;;;;;6.97;100.00;103572.66;5069620;28;20401;-41
2022/01/12 00:13:35;;;;;;;4.72;1.55;;;;;;;6.96;100.00;103575.63;5070078;28;20058;-38
2022/01/12 00:16:04;;;;;;;4.25;1.70;;;;;;;6.94;100.00;103586.06;5070730;28;20056;-34
2022/01/12 00:18:32;;;;;;;4.28;1.40;;;;;;;6.92;100.00;103569.63;5071995;28;20056;-36
2022/01/12 00:21:01;;;;;;;3.42;1.33;;;;;;;6.91;100.00;103579.00;5075147;28;20048;-39
2022/01/12 00:23:29;;;;;;;4.43;1.10;;;;;;;6.90;100.00;103571.75;5074742;28;20044;-36
2022/01/12 00:26:01;;;;;;;5.63;1.25;;;;;;;6.89;100.00;103581.13;5073634;28;20524;-40
2022/01/12 00:34:07;;;;;;;4.43;1.23;;;;;;;6.82;100.00;103547.81;5061633;28;20198;-39
2022/01/12 00:36:35;;;;;;;4.38;1.20;;;;;;;6.81;100.00;103557.19;5074068;28;20524;-35
2022/01/12 00:39:06;;;;;;;5.00;1.65;;;;;;;6.81;100.00;103561.88;5073582;28;20044;-34
2022/01/12 00:41:36;;;;;;;5.10;1.30;;;;;;;6.79;100.00;103569.59;5074529;28;20485;-32
2022/01/12 00:44:07;;;;;;;5.75;1.42;;;;;;;6.76;100.00;103568.09;5073330;28;20059;-32
2022/01/12 00:46:38;;;;;;;5.38;1.83;;;;;;;6.74;100.00;103574.91;5073597;28;20461;-36
2022/01/12 00:49:06;;;;;;;6.65;1.65;;;;;;;6.72;100.00;103580.66;5074913;28;20044;-35
2022/01/12 00:51:36;;;;;;;4.55;1.20;;;;;;;6.69;100.00;103580.22;5074103;28;20064;-30
2022/01/12 00:54:04;;;;;;;4.45;1.30;;;;;;;6.66;100.00;103598.13;5073551;28;20485;-30
2022/01/12 00:56:32;;;;;;;4.50;1.17;;;;;;;6.63;100.00;103595.75;5074411;28;20043;-32
2022/01/12 00:59:00;;;;;;;5.13;1.30;;;;;;;6.62;100.00;103596.81;5069111;28;20430;-34
2022/01/12 01:01:28;;;;;;;4.47;1.30;;;;;;;6.60;100.00;103611.94;5073754;28;20079;-35
2022/01/12 01:03:57;;;;;;;13.68;2.35;;;;;;;6.57;100.00;103622.41;5074108;28;20052;-37
2022/01/12 01:06:25;;;;;;;11.40;2.15;;;;;;;6.55;100.00;103627.31;5073085;28;20052;-33
2022/01/12 01:08:53;;;;;;;14.27;2.40;;;;;;;6.56;100.00;103651.22;5072762;28;20516;-37
2022/01/12 01:11:25;;;;;;;20.15;2.20;;;;;;;6.57;100.00;103649.31;5072995;28;20041;-35
2022/01/12 01:13:59;;;;;;;20.65;2.42;;;;;;;6.57;100.00;103661.25;5071850;28;20068;-38
2022/01/12 01:16:44;;;;;;;9.38;1.42;;;;;;;6.60;100.00;103675.75;5072616;28;20525;-37
2022/01/12 01:27:45;;;;;;;21.83;2.80;;;;;;;6.61;100.00;103703.31;5064950;28;20059;-31
2022/01/12 01:30:15;;;;;;;13.05;2.42;;;;;;;6.61;100.00;103697.75;5071685;28;20045;-33
2022/01/12 01:32:44;;;;;;;16.90;3.05;;;;;;;6.62;100.00;103710.56;5072322;28;20048;-30
2022/01/12 01:35:14;;;;;;;27.77;2.85;;;;;;;6.64;100.00;103715.91;5069724;28;20513;-35
2022/01/12 01:37:42;;;;;;;28.58;3.50;;;;;;;6.63;100.00;103715.06;5073454;28;20040;-31
2022/01/12 01:40:14;;;;;;;22.70;3.22;;;;;;;6.62;100.00;103710.56;5073188;28;20044;-37
2022/01/12 01:42:56;;;;;;;26.30;3.38;;;;;;;6.60;100.00;103701.59;5071730;28;20057;-36
2022/01/12 01:53:48;;;;;;;7.30;1.45;;;;;;;6.41;100.00;103721.72;5071952;28;20045;-35
2022/01/12 01:56:18;;;;;;;9.13;1.50;;;;;;;6.37;100.00;103717.66;5069833;28;20040;-32
2022/01/12 01:58:47;;;;;;;8.82;1.50;;;;;;;6.33;100.00;103714.44;5073346;28;20037;-40
2022/01/12 02:01:18;;;;;;;7.32;1.33;;;;;;;6.29;100.00;103718.66;5071945;28;20044;-37
2022/01/12 02:03:55;;;;;;;6.50;1.70;;;;;;;6.25;100.00;103719.25;5070101;28;20064;-34
2022/01/12 02:06:26;;;;;;;6.70;1.42;;;;;;;6.20;100.00;103726.25;5071543;28;20055;-39
2022/01/12 02:08:54;;;;;;;5.50;1.48;;;;;;;6.17;100.00;103728.59;5071774;28;20079;-35
2022/01/12 02:11:33;;;;;;;3.95;1.23;;;;;;;6.10;100.00;103717.41;5069836;28;20146;-36
2022/01/12 02:14:11;;;;;;;3.58;1.20;;;;;;;6.06;100.00;103732.72;5071437;28;20094;-35
2022/01/12 02:16:51;;;;;;;6.82;1.20;;;;;;;6.00;100.00;103740.97;5069951;28;20048;-34
2022/01/12 02:19:43;;;;;;;6.00;1.50;;;;;;;5.94;100.00;103747.34;5071247;28;20502;-37
2022/01/12 02:36:18;;;;;;;3.33;1.17;;;;;;;5.42;100.00;103742.84;5069314;28;20076;-33
2022/01/12 02:41:33;;;;;;;4.43;1.35;;;;;;;5.25;100.00;103719.22;5070811;28;20045;-38
2022/01/12 02:55:19;;;;;;;2.40;0.90;;;;;;;4.82;100.00;103766.97;5034855;28;20127;-34
2022/01/12 02:57:47;;;;;;;2.83;0.60;;;;;;;4.74;100.00;103767.06;5070462;28;20127;-37
2022/01/12 03:00:18;;;;;;;2.30;0.85;;;;;;;4.69;100.00;103776.97;5053215;28;20045;-32
2022/01/12 03:02:50;;;;;;;1.70;0.80;;;;;;;4.62;100.00;103767.69;5068545;28;20494;-39
2022/01/12 03:05:33;;;;;;;1.75;0.75;;;;;;;4.55;100.00;103764.00;5071772;28;20051;-37
2022/01/12 03:08:10;;;;;;;1.15;0.52;;;;;;;4.46;100.00;103769.59;5069489;28;20095;-34
2022/01/12 03:10:41;;;;;;;1.65;0.60;;;;;;;4.37;100.00;103770.72;5052706;28;20080;-31
2022/01/12 03:13:08;;;;;;;1.17;0.43;;;;;;;4.31;100.00;103771.47;5070059;28;20052;-35
2022/01/12 03:15:40;;;;;;;2.20;0.60;;;;;;;4.24;100.00;103777.91;5070286;28;20566;-32
2022/01/12 03:18:11;;;;;;;1.50;0.50;;;;;;;4.17;100.00;103775.03;5070369;28;20048;-37
2022/01/12 03:20:39;;;;;;;1.00;0.40;;;;;;;4.09;100.00;103777.84;5069726;28;20527;-36
2022/01/12 03:23:08;;;;;;;1.95;0.55;;;;;;;4.03;100.00;103770.28;5069210;28;20131;-34
2022/01/12 03:25:36;;;;;;;1.55;0.50;;;;;;;3.98;100.00;103767.25;5070431;28;20135;-32
2022/01/12 03:28:07;;;;;;;2.17;0.47;;;;;;;3.92;100.00;103767.97;5068907;28;20497;-38
2022/01/12 03:30:41;;;;;;;2.38;0.50;;;;;;;3.86;100.00;103779.75;5070604;28;20436;-36
2022/01/12 03:33:14;;;;;;;2.20;0.57;;;;;;;3.78;100.00;103770.50;5069967;28;20115;-37
2022/01/12 03:35:51;;;;;;;1.50;0.60;;;;;;;3.73;100.00;103772.94;5069519;28;20101;-37
2022/01/12 03:38:21;;;;;;;1.65;0.55;;;;;;;3.65;100.00;103781.25;5069498;28;20402;-32
2022/01/12 03:40:51;;;;;;;;;;;;;;;3.55;100.00;103766.84;5069564;28;20048;-34
2022/01/12 03:43:21;;;;;;;1.73;0.70;;;;;;;3.47;100.00;103777.91;5069896;28;19930;-37
2022/01/12 03:45:49;;;;;;;1.92;0.60;;;;;;;3.43;100.00;103780.16;5069896;28;20064;-41
2022/01/12 03:48:18;;;;;;;1.83;0.60;;;;;;;3.38;100.00;103790.91;5068867;28;20444;-36
2022/01/12 03:50:48;;;;;;;1.60;0.60;;;;;;;3.34;100.00;103785.94;5071468;28;20121;-36
2022/01/12 03:53:15;;;;;;;1.95;0.70;;;;;;;3.29;100.00;103774.56;5069455;28;20079;-44
2022/01/12 03:55:44;;;;;;;1.40;0.70;;;;;;;3.23;100.00;103776.13;5068434;28;20052;-41
2022/01/12 03:58:12;;;;;;;2.15;0.88;;;;;;;3.20;100.00;103779.22;5070773;28;20047;-35
2022/01/12 04:00:41;;;;;;;2.47;0.70;;;;;;;3.15;100.00;103783.59;5070059;28;20053;-38
2022/01/12 04:03:10;;;;;;;1.73;0.65;;;;;;;3.10;100.00;103784.97;5070154;28;20032;-40
2022/01/12 04:08:18;;;;;;;2.08;0.80;;;;;;;3.06;100.00;103780.00;5069755;28;20036;-33
2022/01/12 04:08:28;;;;;;;1.77;0.63;;;;;;;3.00;100.00;103770.53;5069149;28;20131;-35
2022/01/12 04:11:00;;;;;;;2.20;0.90;;;;;;;2.97;100.00;103765.38;5068512;28;20299;-39
2022/01/12 04:13:32;;;;;;;1.73;0.73;;;;;;;2.93;100.00;103782.44;5070606;28;20075;-36
2022/01/12 04:16:04;;;;;;;1.85;0.70;;;;;;;2.89;100.00;103779.19;5068913;28;20139;-34
2022/01/12 04:18:32;;;;;;;2.42;0.80;;;;;;;2.84;100.00;103777.97;5069792;28;20490;-31
2022/01/12 04:21:03;;;;;;;2.05;0.73;;;;;;;2.79;100.00;103783.19;5069628;28;20044;-36
2022/01/12 04:23:31;;;;;;;1.73;0.50;;;;;;;2.73;100.00;103779.22;5068470;28;20044;-37
2022/01/12 04:26:01;;;;;;;2.92;0.80;;;;;;;2.70;100.00;103785.09;5070353;28;20047;-32
2022/01/12 04:28:30;;;;;;;1.80;0.80;;;;;;;2.64;100.00;103781.13;5069567;28;20144;-37
2022/01/12 04:30:58;;;;;;;1.73;0.70;;;;;;;2.60;100.00;103792.72;5070269;28;20054;-32
2022/01/12 04:33:29;;;;;;;3.65;0.80;;;;;;;2.54;100.00;103785.13;5070202;28;20044;-37
2022/01/12 04:35:57;;;;;;;1.80;0.80;;;;;;;2.49;100.00;103793.03;5070192;28;20135;-36
2022/01/12 04:38:33;;;;;;;1.77;0.80;;;;;;;2.46;100.00;103782.38;5068144;28;20084;-35
2022/01/12 04:41:05;;;;;;;1.80;0.80;;;;;;;2.40;100.00;103790.28;5066162;28;20048;-36
2022/01/12 04:43:34;;;;;;;2.15;0.60;;;;;;;2.36;100.00;103802.72;5071212;28;20050;-36
2022/01/12 04:46:24;;;;;;;1.83;0.75;;;;;;;2.33;100.00;103797.53;5068919;28;20456;-41
2022/01/12 04:49:06;;;;;;;1.38;0.50;;;;;;;2.28;100.00;103794.44;5069025;28;20143;-36
2022/01/12 04:51:34;;;;;;;;;;;;;;;2.19;100.00;103789.97;5067181;28;20080;-40
2022/01/12 04:54:02;;;;;;;1.70;0.60;;;;;;;2.14;100.00;103795.13;5069220;28;20362;-31
2022/01/12 04:56:31;;;;;;;1.90;0.60;;;;;;;2.14;100.00;103802.53;5065448;28;20044;-34
2022/01/12 04:58:59;;;;;;;1.60;0.55;;;;;;;2.12;100.00;103812.84;5068626;28;20062;-38
2022/01/12 05:01:28;;;;;;;1.48;0.65;;;;;;;2.09;100.00;103797.53;5069968;28;20053;-35
2022/01/12 05:06:56;;;;;;;1.83;0.82;;;;;;;2.04;100.00;103805.44;5070930;28;20556;-29
2022/01/12 05:09:44;;;;;;;1.35;0.60;;;;;;;2.00;100.00;103815.91;5071116;28;20056;-33
2022/01/12 05:15:06;;;;;;;1.80;1.00;;;;;;;1.90;100.00;103825.38;5072898;28;20056;-40
2022/01/12 05:17:35;;;;;;;1.50;0.70;;;;;;;1.85;100.00;103825.03;5072638;28;20122;-35
2022/01/12 05:20:06;;;;;;;1.60;0.68;;;;;;;1.83;100.00;103821.56;5073048;28;20059;-36
2022/01/12 05:22:34;;;;;;;1.08;0.50;;;;;;;1.78;100.00;103821.25;5072180;28;20071;-32
2022/01/12 05:25:02;;;;;;;1.90;0.80;;;;;;;1.75;100.00;103816.06;5073573;28;20057;-34
2022/01/12 05:27:31;;;;;;;1.90;0.77;;;;;;;1.71;100.00;103805.38;5067941;28;20067;-33
2022/01/12 05:29:59;;;;;;;1.85;0.68;;;;;;;1.71;100.00;103815.53;5072319;28;20049;-37
2022/01/12 05:32:27;;;;;;;1.27;0.60;;;;;;;1.70;100.00;103811.06;5071847;28;20413;-36
2022/01/12 05:35:03;;;;;;;2.00;0.77;;;;;;;1.70;100.00;103816.56;5071663;28;20048;-40
2022/01/12 05:37:32;;;;;;;2.33;0.60;;;;;;;1.69;100.00;103821.19;5072093;28;20048;-38
2022/01/12 05:40:00;;;;;;;1.58;0.57;;;;;;;1.68;100.00;103833.25;5072508;28;20060;-28
2022/01/12 05:42:33;;;;;;;2.15;1.08;;;;;;;1.66;100.00;103829.78;5072578;28;20063;-37
2022/01/12 05:45:00;;;;;;;2.67;1.00;;;;;;;1.66;100.00;103829.78;5072216;28;20052;-37
2022/01/12 05:49:33;;;;;;;1.92;0.68;;;;;;;1.65;100.00;103827.19;5070741;28;20063;-39
2022/01/12 05:50:29;;;;;;;2.20;0.90;;;;;;;1.63;100.00;103832.88;5072056;28;20045;-37
2022/01/12 05:52:59;;;;;;;2.42;1.10;;;;;;;1.62;100.00;103839.41;5071741;28;20047;-33
2022/01/12 05:55:27;;;;;;;2.75;1.00;;;;;;;1.60;100.00;103840.63;5071316;28;20045;-35
2022/01/12 05:57:55;;;;;;;2.17;0.93;;;;;;;1.59;100.00;103852.66;5071319;28;20131;-39
2022/01/12 06:00:26;;;;;;;3.38;1.15;;;;;;;1.58;100.00;103846.28;5071945;28;20413;-39
2022/01/12 06:02:58;;;;;;;3.20;1.20;;;;;;;1.55;100.00;103838.38;5070722;28;20051;-36
2022/01/12 06:05:28;;;;;;;2.42;1.00;;;;;;;1.55;100.00;103848.50;5071730;28;20052;-36
2022/01/12 06:07:57;;;;;;;4.55;1.08;;;;;;;1.51;100.00;103845.22;5071287;28;20160;-37
2022/01/12 06:10:28;;;;;;;2.90;0.90;;;;;;;1.51;100.00;103852.63;5070688;28;20076;-38
2022/01/12 06:12:57;;;;;;;2.40;1.23;;;;;;;1.51;100.00;103852.63;5071552;28;20508;-37
2022/01/12 06:15:26;;;;;;;3.05;1.10;;;;;;;1.49;100.00;103847.28;5070900;28;20056;-35
2022/01/12 06:17:54;;;;;;;2.40;0.90;;;;;;;1.47;100.00;103852.09;5071111;28;20059;-32
2022/01/12 06:20:22;;;;;;;2.45;0.73;;;;;;;1.45;100.00;103865.13;5072723;28;20422;-36
2022/01/12 06:23:02;;;;;;;3.45;1.30;;;;;;;1.42;100.00;103870.97;5070055;28;20048;-34
2022/01/12 06:25:33;;;;;;;3.30;1.30;;;;;;;1.42;100.00;103881.97;5071481;28;20501;-40
2022/01/12 06:28:21;;;;;;;2.58;1.17;;;;;;;1.41;100.00;103883.00;5072263;28;20204;-38
2022/01/12 06:33:35;;;;;;;3.17;1.20;;;;;;;1.38;100.00;103881.47;5070174;28;20127;-34
2022/01/12 06:36:04;;;;;;;5.00;1.38;;;;;;;1.38;100.00;103881.47;5070194;28;20414;-35
2022/01/12 06:38:31;;;;;;;4.20;1.13;;;;;;;1.38;100.00;103886.97;5069257;28;20135;-34
2022/01/12 06:41:01;;;;;;;3.67;1.20;;;;;;;1.38;100.00;103886.97;5071336;28;20055;-32
2022/01/12 06:43:29;;;;;;;3.75;1.27;;;;;;;1.37;100.00;103878.88;5070700;28;20052;-35
2022/01/12 06:45:58;;;;;;;5.50;1.67;;;;;;;1.36;100.00;103879.91;5069844;28;20182;-35
2022/01/12 06:48:26;;;;;;;4.07;1.17;;;;;;;1.34;100.00;103873.69;5070649;28;20076;-37
2022/01/12 06:50:54;;;;;;;4.63;1.25;;;;;;;1.33;100.00;103883.84;5069660;28;20083;-36
2022/01/12 06:53:22;;;;;;;3.13;1.05;;;;;;;1.32;100.00;103890.38;5070794;28;20052;-36
2022/01/12 06:55:50;;;;;;;4.85;1.55;;;;;;;1.33;100.00;103899.47;5070523;28;20052;-36
2022/01/12 06:58:19;;;;;;;3.50;1.23;;;;;;;1.32;100.00;103892.25;5069415;28;20080;-35
2022/01/12 07:00:48;;;;;;;3.30;1.30;;;;;;;1.31;100.00;103893.28;5070619;28;20138;-34
2022/01/12 07:03:17;;;;;;;2.85;1.10;;;;;;;1.30;100.00;103888.81;5069720;28;20087;-34
2022/01/12 07:05:52;;;;;;;6.47;2.05;;;;;;;1.29;100.00;103873.31;5066877;28;20422;-36
2022/01/12 07:08:20;;;;;;;3.15;1.10;;;;;;;1.29;100.00;103871.44;5070530;28;20051;-38
2022/01/12 07:10:50;;;;;;;5.35;1.45;;;;;;;1.28;100.00;103868.84;5068572;28;20053;-34
2022/01/12 07:13:23;;;;;;;3.45;1.27;;;;;;;1.27;100.00;103875.38;5069774;28;20056;-37
2022/01/12 07:15:56;;;;;;;4.65;1.55;;;;;;;1.25;100.00;103885.66;5071284;28;20036;-39
2022/01/12 07:18:26;;;;;;;3.22;0.90;;;;;;;1.25;100.00;103889.28;5068796;28;20066;-35
2022/01/12 07:20:54;;;;;;;5.10;1.10;;;;;;;1.24;100.00;103889.44;5067632;28;20567;-35
2022/01/12 07:23:22;;;;;;;5.93;1.65;;;;;;;1.25;100.00;103900.28;5070210;28;20048;-37
2022/01/12 07:25:50;;;;;;;3.13;0.82;;;;;;;1.23;100.00;103910.59;5069294;28;20051;-39
2022/01/12 07:28:18;;;;;;;2.67;1.10;;;;;;;1.22;100.00;103910.75;5069621;28;20480;-36
2022/01/12 07:30:48;;;;;;;3.28;1.17;;;;;;;1.22;100.00;103917.09;5069728;28;20528;-39
2022/01/12 07:33:16;;;;;;;5.63;1.65;;;;;;;1.22;100.00;103930.84;5069325;28;20056;-34
2022/01/12 07:35:45;;;;;;;3.40;1.60;;;;;;;1.22;100.00;103930.00;5068442;28;20048;-35
2022/01/12 07:38:12;;;;;;;5.03;1.90;;;;;;;1.22;100.00;103924.50;5058466;28;20047;-35
2022/01/12 07:40:40;;;;;;;5.20;1.60;;;;;;;1.24;100.00;103926.06;5068342;28;20068;-31
2022/01/12 07:43:08;;;;;;;4.05;1.65;;;;;;;1.25;100.00;103929.69;5069520;28;20052;-38
2022/01/12 07:45:37;;;;;;;3.63;1.60;;;;;;;1.24;100.00;103931.56;5069027;28;20057;-37
2022/01/12 07:48:06;;;;;;;2.35;1.00;;;;;;;1.23;100.00;103939.97;5069108;28;20135;-32
2022/01/12 07:50:34;;;;;;;2.10;1.00;;;;;;;1.22;100.00;103944.59;5069682;28;20071;-36
2022/01/12 07:53:02;;;;;;;2.20;1.13;;;;;;;1.23;100.00;103953.72;5069850;28;20041;-38
2022/01/12 07:55:29;;;;;;;1.95;0.88;;;;;;;1.24;100.00;103953.56;5069386;28;20430;-35
2022/01/12 07:57:57;;;;;;;2.50;1.00;;;;;;;1.25;100.00;103962.69;5069801;28;20052;-33
2022/01/12 08:00:25;;;;;;;2.45;1.27;;;;;;;1.24;100.00;103964.56;5069974;28;20052;-39
2022/01/12 08:02:53;;;;;;;1.80;0.80;;;;;;;1.25;100.00;103965.44;5068870;28;20469;-39
2022/01/12 08:05:23;;;;;;;1.70;0.70;;;;;;;1.26;100.00;103975.41;5069645;28;20497;-32
2022/01/12 08:07:52;;;;;;;1.60;0.70;;;;;;;1.24;100.00;103971.97;5069704;28;20351;-30
2022/01/12 08:10:21;;;;;;;2.30;1.10;;;;;;;1.24;100.00;103978.31;5069317;28;20040;-39
2022/01/12 08:12:49;;;;;;;1.25;0.50;;;;;;;1.24;100.00;103980.22;5069396;28;20041;-33
2022/01/12 08:15:16;;;;;;;1.88;0.80;;;;;;;1.25;100.00;103990.19;5069687;28;20075;-33
2022/01/12 08:17:44;;;;;;;2.03;0.95;;;;;;;1.26;100.00;103986.41;5069119;28;20496;-35
2022/01/12 08:20:15;;;;;;;2.28;1.10;;;;;;;1.28;100.00;103995.38;5070026;28;20540;-34
2022/01/12 08:22:44;;;;;;;1.77;0.80;;;;;;;1.31;100.00;104006.94;5068684;28;20052;-34
2022/01/12 08:25:12;;;;;;;2.10;0.80;;;;;;;1.35;100.00;104004.72;5069955;28;20076;-36
2022/01/12 08:27:40;;;;;;;2.28;1.05;;;;;;;1.38;100.00;104005.28;5069443;28;20402;-37
2022/01/12 08:30:16;;;;;;;2.30;1.00;;;;;;;1.42;100.00;104008.53;5068868;28;20052;-34
2022/01/12 08:32:45;;;;;;;4.68;1.60;;;;;;;1.45;100.00;104012.84;5067700;28;20460;-34
2022/01/12 08:35:13;;;;;;;3.40;1.60;;;;;;;1.49;100.00;104014.25;5069471;28;20551;-39
2022/01/12 08:37:41;;;;;;;2.42;1.20;;;;;;;1.54;100.00;104017.41;5066642;28;20134;-34
2022/01/12 08:40:13;;;;;;;2.15;1.10;;;;;;;1.59;100.00;104018.66;5071291;28;20041;-37
2022/01/12 08:42:41;;;;;;;5.13;1.53;;;;;;;1.61;100.00;104016.56;5073135;28;20041;-38
2022/01/12 08:45:09;;;;;;;4.03;1.67;;;;;;;1.68;100.00;104008.53;5072622;28;20290;-39
2022/01/12 08:47:37;;;;;;;3.42;1.50;;;;;;;1.75;100.00;104011.50;5073083;28;20057;-30
2022/01/12 08:50:06;;;;;;;4.05;1.42;;;;;;;1.85;100.00;104012.25;5072741;28;20064;-36
2022/01/12 08:52:34;;;;;;;3.72;1.88;;;;;;;1.98;100.00;104015.44;5071665;28;20052;-38
2022/01/12 08:55:02;;;;;;;5.82;2.03;;;;;;;2.14;100.00;104020.13;5068251;28;20079;-35
2022/01/12 08:57:31;;;;;;;4.57;2.45;;;;;;;2.36;100.00;104017.66;5070156;28;20036;-32
2022/01/12 09:00:00;;;;;;;4.50;2.53;;;;;;;2.69;100.00;104017.72;5073196;28;20045;-38
2022/01/12 09:02:28;;;;;;;6.38;2.30;;;;;;;3.07;100.00;104011.56;5071983;28;20110;-35
2022/01/12 09:04:56;;;;;;;8.05;2.17;;;;;;;3.44;100.00;104013.75;5072372;28;20052;-38
2022/01/12 09:07:24;;;;;;;5.93;2.60;;;;;;;3.84;100.00;104011.94;5073780;28;20102;-41
2022/01/12 09:09:52;;;;;;;8.35;2.90;;;;;;;4.26;100.00;104016.28;5074013;28;20044;-33
2022/01/12 09:12:25;;;;;;;8.77;3.15;;;;;;;4.71;100.00;104024.69;5073184;28;20048;-37
2022/01/12 09:14:54;;;;;;;11.15;2.95;;;;;;;5.19;100.00;104026.25;5073577;28;20052;-35
2022/01/12 09:17:23;;;;;;;10.52;3.10;;;;;;;5.74;100.00;104022.25;5074062;28;20040;-36
2022/01/12 09:19:52;;;;;;;10.52;3.15;;;;;;;6.26;100.00;104028.75;5072628;28;20043;-41
2022/01/12 09:22:20;;;;;;;16.00;3.28;;;;;;;6.71;100.00;104022.94;5073754;28;20045;-38
2022/01/12 09:24:49;;;;;;;13.43;2.78;;;;;;;7.22;100.00;104028.38;5073487;28;20040;-38
2022/01/12 09:27:17;;;;;;;10.20;2.33;;;;;;;7.73;100.00;104031.81;5073095;28;20075;-37
2022/01/12 09:29:46;;;;;;;13.07;2.22;;;;;;;8.24;100.00;104042.59;5073159;28;20040;-34
2022/01/12 09:32:16;;;;;;;14.20;2.47;;;;;;;8.72;100.00;104045.44;5073678;28;20457;-34
2022/01/12 09:34:43;;;;;;;15.43;2.15;;;;;;;9.09;100.00;104050.44;5072796;28;20048;-40
2022/01/12 09:37:11;;;;;;;9.52;2.42;;;;;;;9.44;100.00;104053.06;5062685;28;20040;-41
2022/01/12 09:39:39;;;;;;;11.30;1.95;;;;;;;9.80;100.00;104052.63;5072388;28;20048;-40
2022/01/12 09:42:08;;;;;;;10.38;1.95;;;;;;;10.14;100.00;104051.50;5073532;28;20054;-39
2022/01/12 09:44:37;;;;;;;9.73;1.75;;;;;;;10.50;100.00;104049.06;5073129;28;20072;-39
2022/01/12 09:47:07;;;;;;;13.80;2.03;;;;;;;10.87;100.00;104050.16;5072250;28;20044;-33
2022/01/12 09:49:36;;;;;;;13.43;2.15;;;;;;;11.23;100.00;104040.25;5073179;28;20405;-38
2022/01/12 09:52:05;;;;;;;12.18;2.42;;;;;;;11.48;100.00;104037.50;5072737;28;20049;-41
2022/01/12 09:54:33;;;;;;;11.05;1.60;;;;;;;11.71;100.00;104046.97;5072302;28;20044;-37
2022/01/12 09:57:01;;;;;;;14.48;2.80;;;;;;;11.88;100.00;104041.66;5072862;28;20135;-37
2022/01/12 09:59:29;;;;;;;10.63;1.63;;;;;;;11.86;100.00;104040.19;5072590;28;20051;-35
2022/01/12 10:01:57;;;;;;;10.45;2.08;;;;;;;11.90;100.00;104053.50;5072143;28;20052;-35
2022/01/12 10:04:27;;;;;;;9.52;1.80;;;;;;;12.04;100.00;104045.81;5055077;28;20049;-36
2022/01/12 10:06:59;;;;;;;13.35;2.58;;;;;;;12.14;100.00;104042.50;5072985;28;20052;-33
2022/01/12 10:09:33;;;;;;;11.00;2.20;;;;;;;12.35;100.00;104044.84;5072126;28;20052;-36
2022/01/12 10:12:04;;;;;;;9.63;1.92;;;;;;;12.49;100.00;104051.97;5069150;28;20045;-39
2022/01/12 10:14:40;;;;;;;;;;;;;;;12.59;100.00;104057.88;5071369;28;20459;-36
2022/01/12 10:17:07;;;;;;;9.07;1.65;;;;;;;12.82;100.00;104070.28;5072211;28;19940;-37
2022/01/12 10:19:35;;;;;;;8.40;1.70;;;;;;;13.03;100.00;104076.25;5072503;28;20040;-34
2022/01/12 10:22:07;;;;;;;11.10;2.20;;;;;;;13.29;100.00;104074.19;5071180;28;20078;-39
2022/01/12 10:24:38;;;;;;;10.37;2.23;;;;;;;13.45;100.00;104071.53;5073017;28;20051;-40
2022/01/12 10:27:14;;;;;;;10.75;1.80;;;;;;;13.65;100.00;104064.75;5072610;28;20278;-36
2022/01/12 10:29:43;;;;;;;10.13;1.73;;;;;;;13.67;100.00;104057.81;5071656;28;20053;-38
2022/01/12 10:32:17;;;;;;;8.75;2.00;;;;;;;13.64;100.00;104057.44;5071597;28;20040;-41
2022/01/12 10:34:46;;;;;;;13.07;2.55;;;;;;;13.78;100.00;104064.53;5072235;28;20569;-41
2022/01/12 10:37:17;;;;;;;14.00;2.63;;;;;;;13.83;100.00;104064.66;5067782;28;20049;-38
2022/01/12 10:39:48;;;;;;;9.23;2.03;;;;;;;13.78;100.00;104061.75;5067562;28;20098;-41
2022/01/12 10:42:18;;;;;;;11.45;1.98;;;;;;;13.70;100.00;104056.47;5071638;28;20071;-43
2022/01/12 10:44:49;;;;;;;10.05;1.95;;;;;;;13.61;100.00;104055.97;5071487;28;20052;-41
2022/01/12 10:47:19;;;;;;;9.55;2.22;;;;;;;13.58;100.00;104055.63;5071335;28;20433;-41
2022/01/12 10:49:59;;;;;;;10.05;2.00;;;;;;;13.66;100.00;104055.25;5071243;28;20060;-35
2022/01/12 10:52:30;;;;;;;11.90;2.08;;;;;;;13.61;100.00;104055.09;5071704;28;20091;-42
2022/01/12 10:55:00;;;;;;;9.48;2.47;;;;;;;13.54;100.00;104034.75;5072190;28;20056;-37
2022/01/12 10:57:29;;;;;;;10.70;2.15;;;;;;;13.44;100.00;104030.56;5070841;28;20045;-37
2022/01/12 11:00:04;;;;;;;8.00;1.80;;;;;;;13.32;100.00;104034.44;5060875;28;20041;-36
2022/01/12 11:02:33;;;;;;;9.95;2.40;;;;;;;13.22;100.00;104029.41;5070606;28;20147;-35
2022/01/12 11:05:02;;;;;;;7.35;1.70;;;;;;;13.11;100.00;104030.22;5070797;28;20086;-40
2022/01/12 11:07:31;;;;;;;8.73;1.80;;;;;;;13.01;100.00;104029.91;5069713;28;20044;-41
2022/01/12 11:10:05;;;;;;;8.43;2.42;;;;;;;12.95;100.00;104028.94;5070863;28;20040;-34
2022/01/12 11:12:35;;;;;;;9.00;1.50;;;;;;;12.96;100.00;104024.19;5070191;28;20107;-38
2022/01/12 11:15:05;;;;;;;11.85;2.08;;;;;;;12.81;100.00;104027.41;5068499;28;20041;-37
2022/01/12 11:17:33;;;;;;;10.27;2.05;;;;;;;12.62;100.00;104014.53;5070961;28;20051;-36
2022/01/12 11:20:09;;;;;;;10.05;1.65;;;;;;;12.40;100.00;104019.75;5069190;28;20045;-34
2022/01/12 11:22:55;;;;;;;8.38;1.80;;;;;;;12.06;100.00;104021.25;5071176;28;20052;-36
2022/01/12 11:25:26;;;;;;;7.40;1.90;;;;;;;11.81;100.00;104007.28;5066855;28;20048;-39
2022/01/12 11:28:05;;;;;;;13.70;2.53;;;;;;;11.62;100.00;104006.38;5071723;28;20040;-39
2022/01/12 11:30:33;;;;;;;8.20;1.77;;;;;;;11.50;100.00;104007.34;5068215;28;20045;-33
2022/01/12 11:33:02;;;;;;;8.13;1.80;;;;;;;11.38;100.00;104016.50;5070498;28;20040;-39
2022/01/12 11:35:33;;;;;;;9.15;1.50;;;;;;;11.29;100.00;104003.00;5071024;28;20048;-39
2022/01/12 11:38:02;;;;;;;10.98;1.73;;;;;;;11.26;100.00;104001.53;5071545;28;20040;-36
2022/01/12 11:40:39;;;;;;;9.82;1.50;;;;;;;11.06;100.00;104000.81;5070418;28;20044;-41
2022/01/12 11:43:18;;;;;;;11.02;1.83;;;;;;;10.77;100.00;104001.47;5071305;28;20044;-39
2022/01/12 11:45:47;;;;;;;9.00;2.00;;;;;;;10.60;100.00;103993.56;5070749;28;20079;-38
2022/01/12 11:48:15;;;;;;;10.73;2.33;;;;;;;10.45;100.00;103990.22;5070593;28;20044;-40
2022/01/12 11:50:52;;;;;;;11.52;1.75;;;;;;;10.34;100.00;103986.19;5068807;28;20062;-38
2022/01/12 11:53:22;;;;;;;7.68;2.10;;;;;;;10.22;100.00;103985.16;5070628;28;20506;-34
2022/01/12 11:55:49;;;;;;;12.40;2.40;;;;;;;10.14;100.00;103971.44;5070877;28;20052;-37
2022/01/12 11:58:18;;;;;;;15.75;2.55;;;;;;;10.12;100.00;103972.72;5070906;28;20052;-37
2022/01/12 12:00:46;;;;;;;7.88;1.40;;;;;;;10.22;100.00;103975.94;5070078;28;20053;-38
2022/01/12 12:03:16;;;;;;;9.95;2.15;;;;;;;10.37;100.00;103987.69;5071145;28;20401;-39
2022/01/12 12:05:44;;;;;;;9.23;1.95;;;;;;;10.43;100.00;104000.75;5069497;28;20045;-39
2022/01/12 12:08:25;;;;;;;8.65;1.48;;;;;;;10.46;100.00;104005.03;5070417;28;20059;-38
2022/01/12 12:10:54;;;;;;;8.35;2.10;;;;;;;10.44;100.00;104022.00;5070246;28;20405;-40
2022/01/12 12:13:22;;;;;;;9.15;1.77;;;;;;;10.38;100.00;104022.91;5071891;28;20167;-36
2022/01/12 12:15:52;;;;;;;12.65;2.00;;;;;;;10.34;100.00;104025.28;5073959;28;20056;-39
2022/01/12 12:18:20;;;;;;;9.20;1.77;;;;;;;10.29;100.00;104021.44;5075003;28;20147;-36
2022/01/12 12:20:48;;;;;;;6.18;1.60;;;;;;;10.30;100.00;104017.56;5074543;28;20044;-38
2022/01/12 12:23:22;;;;;;;13.98;2.00;;;;;;;10.32;100.00;104021.84;5074108;28;20063;-39
2022/01/12 12:25:52;;;;;;;12.65;1.80;;;;;;;10.27;100.00;104030.03;5074703;28;20462;-36
2022/01/12 12:28:20;;;;;;;8.20;1.50;;;;;;;10.19;100.00;104021.88;5074473;28;20071;-40
2022/01/12 12:30:49;;;;;;;9.73;1.80;;;;;;;10.17;100.00;104017.59;5074442;28;20078;-40
2022/01/12 12:33:17;;;;;;;9.63;2.08;;;;;;;10.11;100.00;104019.31;5074751;28;20076;-42
2022/01/12 12:35:45;;;;;;;9.55;1.80;;;;;;;10.03;100.00;104005.59;5073479;28;20048;-38